Airbus A320 "VivaColombia"посадка с остатком 200кг.

Самолет Airbus A320-200N колумбийской авиакомпании "VivaColombia", (регистрационный номер HK-5378) выполнявший внутренний рейс VH-8332 из Кали(SKCL) в Риоачу(SKRH), снижался в направлении аэропорта Риоача. Однако, из-за погодных условий на а/д Риоача,
SKRH 171800Z 09012KT 3000 TSRA SCT012CB OVC020 24/24 Q1009 RMK CB/E A2981=
SKRH 171700Z 11010KT 1000 TSRA BKN012CB 27/25 Q1009 RMK A2982=

экипаж прервал снижение на FL180 и встал в зону ожидания, примерно, на 30 минут. В следствие отсутствия тенденции к улучшению погоды, экипаж принял решение следовать на аэродром Медельин(SKRG) (Рио-Негро), с набором FL370.
В процессе снижения, для захода на посадку на а/д Медельин, экипаж так же получил информацию об отсутствии метеоусловий в намеченном аэропорту.

SKRG 171814Z 23011G22KT 200V270 9999 3000S -TSRA SCT015CB BKN080 17/15 Q1023 BECMG FM1900 DZ SCT015CB RMK CB/S/W A3021=
SKRG 171800Z 36006KT 9999 VCSH SCT017TCU SCT023 20/13 Q1023 NOSIG RMK TCU/S/N VCSH/S A3022=

В следствие чего прервал снижение на FL150 и перешел в набор FL210 с уведомлением диспетчера об аварийном остатке топлива (MAYDAY FUEL*).

Воздушное судно направили на ближайший аэродром Лос-Гарсонес(SKMR)
, который находился в Монтерии. Примерно через 2:15м после прекращения захода в Риоачу и примерно через 3:20м после вылета из Кали, самолет успешно приземлился в Монтейре на ВПП32.
SKMR 171900Z 30007KT 9999 SCT022 BKN120 31/25 Q1007 RMK A2976=

Остаток в левом топливном баке составил около 100 кг, а в правом - около 110 кг топлива. FOB (fuel on board) индицировался в 200кг.
VivaColombia A20N near Monteria on Oct 17th 2022, landed with just 200kg of fuel remaining


На момент вылета ВС, топлива на борту было на 180 минут полета. Расчетное топливо на полет было равно 80 минутам полета. То есть запас был на 100 минут.



*MAYDAY FUEL – ситуация, связанная с запасом топлива на борту, когда фактический остаток топлива становится равным финальному резерву топлива или расчёт предполагаемого запаса топлива на борту показывает, что после посадки на ближайшем аэродроме, на котором можно совершить безопасную посадку, запас топлива окажется ниже запланированного уровня финального резерва топлива.

Категория: Авиационные инциденты | Добавил: skywaypublic (20.10.2022)
Просмотров: 367 | Теги: топливо, mayday fuel, A320 | Рейтинг: 5.0/1
Всего комментариев: 0
avatar

SkyWay Aviation Clothing

| Яндекс.Метрика Яндекс.Метрика | | Рейтинг@Mail.ru